sensor_id;sensor_type;location;lat;lon;timestamp;temperature;humidity
36416;DHT22;22447;44.530;18.620;2023-06-14T00:02:11;13.80;99.90
36416;DHT22;22447;44.530;18.620;2023-06-14T00:04:37;13.80;99.90
36416;DHT22;22447;44.530;18.620;2023-06-14T00:07:05;13.80;99.90
36416;DHT22;22447;44.530;18.620;2023-06-14T00:09:34;13.80;99.90
36416;DHT22;22447;44.530;18.620;2023-06-14T00:12:00;13.70;99.90
36416;DHT22;22447;44.530;18.620;2023-06-14T00:14:26;13.80;99.90
36416;DHT22;22447;44.530;18.620;2023-06-14T00:16:52;13.70;99.90
36416;DHT22;22447;44.530;18.620;2023-06-14T00:19:25;13.70;99.90
36416;DHT22;22447;44.530;18.620;2023-06-14T00:21:50;13.70;99.90
36416;DHT22;22447;44.530;18.620;2023-06-14T00:24:19;13.70;99.90
36416;DHT22;22447;44.530;18.620;2023-06-14T00:26:45;13.70;99.90
36416;DHT22;22447;44.530;18.620;2023-06-14T00:29:11;13.70;99.90
36416;DHT22;22447;44.530;18.620;2023-06-14T00:31:37;13.60;99.90
36416;DHT22;22447;44.530;18.620;2023-06-14T00:34:03;13.60;99.90
36416;DHT22;22447;44.530;18.620;2023-06-14T00:36:29;13.60;99.90
36416;DHT22;22447;44.530;18.620;2023-06-14T00:38:55;13.50;99.90
36416;DHT22;22447;44.530;18.620;2023-06-14T00:41:21;13.50;99.90
36416;DHT22;22447;44.530;18.620;2023-06-14T00:43:48;13.50;99.90
36416;DHT22;22447;44.530;18.620;2023-06-14T00:46:14;13.50;99.90
36416;DHT22;22447;44.530;18.620;2023-06-14T00:48:40;13.40;99.90
36416;DHT22;22447;44.530;18.620;2023-06-14T00:51:07;13.40;99.90
36416;DHT22;22447;44.530;18.620;2023-06-14T00:53:33;13.50;99.90
36416;DHT22;22447;44.530;18.620;2023-06-14T00:56:01;13.40;99.90
36416;DHT22;22447;44.530;18.620;2023-06-14T00:58:27;13.40;99.90
36416;DHT22;22447;44.530;18.620;2023-06-14T01:00:54;13.30;99.90
36416;DHT22;22447;44.530;18.620;2023-06-14T01:03:20;13.30;99.90
36416;DHT22;22447;44.530;18.620;2023-06-14T01:05:53;13.20;99.90
36416;DHT22;22447;44.530;18.620;2023-06-14T01:11:36;13.20;99.90
36416;DHT22;22447;44.530;18.620;2023-06-14T01:14:05;13.20;99.90
36416;DHT22;22447;44.530;18.620;2023-06-14T01:16:32;13.20;99.90
36416;DHT22;22447;44.530;18.620;2023-06-14T01:18:58;13.20;99.90
36416;DHT22;22447;44.530;18.620;2023-06-14T01:21:25;13.20;99.90
36416;DHT22;22447;44.530;18.620;2023-06-14T01:23:54;13.20;99.90
36416;DHT22;22447;44.530;18.620;2023-06-14T01:26:22;13.20;99.90
36416;DHT22;22447;44.530;18.620;2023-06-14T01:28:50;13.30;99.90
36416;DHT22;22447;44.530;18.620;2023-06-14T01:31:20;13.30;99.90
36416;DHT22;22447;44.530;18.620;2023-06-14T01:33:50;13.30;99.90
36416;DHT22;22447;44.530;18.620;2023-06-14T01:36:19;13.40;99.90
36416;DHT22;22447;44.530;18.620;2023-06-14T01:38:49;13.40;99.90
36416;DHT22;22447;44.530;18.620;2023-06-14T01:41:17;13.40;99.90
36416;DHT22;22447;44.530;18.620;2023-06-14T01:43:45;13.40;99.90
36416;DHT22;22447;44.530;18.620;2023-06-14T01:46:12;13.40;99.90
36416;DHT22;22447;44.530;18.620;2023-06-14T01:48:39;13.50;99.90
36416;DHT22;22447;44.530;18.620;2023-06-14T01:51:05;13.50;99.90
36416;DHT22;22447;44.530;18.620;2023-06-14T01:53:31;13.50;99.90
36416;DHT22;22447;44.530;18.620;2023-06-14T01:55:58;13.40;99.90
36416;DHT22;22447;44.530;18.620;2023-06-14T01:58:24;13.40;99.90
36416;DHT22;22447;44.530;18.620;2023-06-14T02:00:51;13.30;99.90
36416;DHT22;22447;44.530;18.620;2023-06-14T02:03:21;13.40;99.90
36416;DHT22;22447;44.530;18.620;2023-06-14T02:05:47;13.40;99.90
36416;DHT22;22447;44.530;18.620;2023-06-14T02:08:13;13.30;99.90
36416;DHT22;22447;44.530;18.620;2023-06-14T02:10:39;13.30;99.90
36416;DHT22;22447;44.530;18.620;2023-06-14T02:13:05;13.30;99.90
36416;DHT22;22447;44.530;18.620;2023-06-14T02:15:31;13.30;99.90
36416;DHT22;22447;44.530;18.620;2023-06-14T02:18:02;13.40;99.90
36416;DHT22;22447;44.530;18.620;2023-06-14T02:20:29;13.40;99.90
36416;DHT22;22447;44.530;18.620;2023-06-14T02:22:56;13.40;99.90
36416;DHT22;22447;44.530;18.620;2023-06-14T02:25:22;13.40;99.90
36416;DHT22;22447;44.530;18.620;2023-06-14T02:27:48;13.40;99.90
36416;DHT22;22447;44.530;18.620;2023-06-14T02:30:14;13.50;99.90
36416;DHT22;22447;44.530;18.620;2023-06-14T02:32:41;13.50;99.90
36416;DHT22;22447;44.530;18.620;2023-06-14T02:35:08;13.60;99.90
36416;DHT22;22447;44.530;18.620;2023-06-14T02:37:35;13.60;99.90
36416;DHT22;22447;44.530;18.620;2023-06-14T02:40:00;13.60;99.90
36416;DHT22;22447;44.530;18.620;2023-06-14T02:42:26;13.60;99.90
36416;DHT22;22447;44.530;18.620;2023-06-14T02:44:52;13.60;99.90
36416;DHT22;22447;44.530;18.620;2023-06-14T02:47:20;13.50;99.90
36416;DHT22;22447;44.530;18.620;2023-06-14T02:49:46;13.50;99.90
36416;DHT22;22447;44.530;18.620;2023-06-14T02:52:14;13.40;99.90
36416;DHT22;22447;44.530;18.620;2023-06-14T02:54:40;13.50;99.90
36416;DHT22;22447;44.530;18.620;2023-06-14T02:57:08;13.50;99.90
36416;DHT22;22447;44.530;18.620;2023-06-14T02:59:34;13.40;99.90
36416;DHT22;22447;44.530;18.620;2023-06-14T03:02:02;13.40;99.90
36416;DHT22;22447;44.530;18.620;2023-06-14T03:04:30;13.50;99.90
36416;DHT22;22447;44.530;18.620;2023-06-14T03:07:07;13.40;99.90
36416;DHT22;22447;44.530;18.620;2023-06-14T03:09:39;13.30;99.90
36416;DHT22;22447;44.530;18.620;2023-06-14T03:12:07;13.30;99.90
36416;DHT22;22447;44.530;18.620;2023-06-14T03:14:35;13.40;99.90
36416;DHT22;22447;44.530;18.620;2023-06-14T03:17:02;13.40;99.90
36416;DHT22;22447;44.530;18.620;2023-06-14T03:19:31;13.40;99.90
36416;DHT22;22447;44.530;18.620;2023-06-14T03:21:57;13.40;99.90
36416;DHT22;22447;44.530;18.620;2023-06-14T03:24:25;13.40;99.90
36416;DHT22;22447;44.530;18.620;2023-06-14T03:26:55;13.40;99.90
36416;DHT22;22447;44.530;18.620;2023-06-14T03:29:23;13.40;99.90
36416;DHT22;22447;44.530;18.620;2023-06-14T03:31:58;13.40;99.90
36416;DHT22;22447;44.530;18.620;2023-06-14T03:34:25;13.40;99.90
36416;DHT22;22447;44.530;18.620;2023-06-14T03:36:51;13.40;99.90
36416;DHT22;22447;44.530;18.620;2023-06-14T03:39:18;13.50;99.90
36416;DHT22;22447;44.530;18.620;2023-06-14T03:41:45;13.50;99.90
36416;DHT22;22447;44.530;18.620;2023-06-14T03:44:15;13.60;99.90
36416;DHT22;22447;44.530;18.620;2023-06-14T03:46:42;13.60;99.90
36416;DHT22;22447;44.530;18.620;2023-06-14T03:49:08;13.60;99.90
36416;DHT22;22447;44.530;18.620;2023-06-14T03:51:34;13.60;99.90
36416;DHT22;22447;44.530;18.620;2023-06-14T03:54:01;13.60;99.90
36416;DHT22;22447;44.530;18.620;2023-06-14T03:56:27;13.70;99.90
36416;DHT22;22447;44.530;18.620;2023-06-14T03:58:53;13.90;99.90
36416;DHT22;22447;44.530;18.620;2023-06-14T04:01:23;14.00;99.90
36416;DHT22;22447;44.530;18.620;2023-06-14T04:03:57;14.10;99.90
36416;DHT22;22447;44.530;18.620;2023-06-14T04:06:25;14.10;99.90
36416;DHT22;22447;44.530;18.620;2023-06-14T04:08:58;14.10;99.90
36416;DHT22;22447;44.530;18.620;2023-06-14T04:11:29;14.10;99.90
36416;DHT22;22447;44.530;18.620;2023-06-14T04:13:55;14.30;99.90
36416;DHT22;22447;44.530;18.620;2023-06-14T04:16:22;14.40;99.90
36416;DHT22;22447;44.530;18.620;2023-06-14T04:18:48;14.50;99.90
36416;DHT22;22447;44.530;18.620;2023-06-14T04:21:18;14.50;99.90
36416;DHT22;22447;44.530;18.620;2023-06-14T04:23:45;14.60;99.90
36416;DHT22;22447;44.530;18.620;2023-06-14T04:26:14;14.70;99.90
36416;DHT22;22447;44.530;18.620;2023-06-14T04:28:42;14.70;99.90
36416;DHT22;22447;44.530;18.620;2023-06-14T04:31:10;14.70;99.90
36416;DHT22;22447;44.530;18.620;2023-06-14T04:33:37;14.90;99.90
36416;DHT22;22447;44.530;18.620;2023-06-14T04:36:15;14.90;99.90
36416;DHT22;22447;44.530;18.620;2023-06-14T04:38:43;14.90;99.90
36416;DHT22;22447;44.530;18.620;2023-06-14T04:41:12;15.00;99.90
36416;DHT22;22447;44.530;18.620;2023-06-14T04:43:39;15.00;99.90
36416;DHT22;22447;44.530;18.620;2023-06-14T04:46:07;15.00;99.90
36416;DHT22;22447;44.530;18.620;2023-06-14T04:51:07;15.10;99.90
36416;DHT22;22447;44.530;18.620;2023-06-14T04:53:33;15.20;99.90
36416;DHT22;22447;44.530;18.620;2023-06-14T04:56:00;15.30;99.90
36416;DHT22;22447;44.530;18.620;2023-06-14T04:58:29;15.40;99.90
36416;DHT22;22447;44.530;18.620;2023-06-14T05:00:56;15.40;99.90
36416;DHT22;22447;44.530;18.620;2023-06-14T05:03:22;15.50;99.90
36416;DHT22;22447;44.530;18.620;2023-06-14T05:05:50;15.60;99.90
36416;DHT22;22447;44.530;18.620;2023-06-14T05:08:17;15.70;99.90
36416;DHT22;22447;44.530;18.620;2023-06-14T05:10:43;15.80;99.90
36416;DHT22;22447;44.530;18.620;2023-06-14T05:13:09;15.70;99.90
36416;DHT22;22447;44.530;18.620;2023-06-14T05:15:36;15.80;99.90
36416;DHT22;22447;44.530;18.620;2023-06-14T05:18:02;15.90;99.90
36416;DHT22;22447;44.530;18.620;2023-06-14T05:20:28;15.90;99.90
36416;DHT22;22447;44.530;18.620;2023-06-14T05:22:54;15.90;99.90
36416;DHT22;22447;44.530;18.620;2023-06-14T05:25:22;16.00;99.90
36416;DHT22;22447;44.530;18.620;2023-06-14T05:27:48;16.10;99.90
36416;DHT22;22447;44.530;18.620;2023-06-14T05:30:15;16.10;99.90
36416;DHT22;22447;44.530;18.620;2023-06-14T05:32:44;16.20;99.90
36416;DHT22;22447;44.530;18.620;2023-06-14T05:35:10;16.20;99.90
36416;DHT22;22447;44.530;18.620;2023-06-14T05:37:39;16.10;99.90
36416;DHT22;22447;44.530;18.620;2023-06-14T05:40:05;16.10;99.90
36416;DHT22;22447;44.530;18.620;2023-06-14T05:42:36;16.20;99.90
36416;DHT22;22447;44.530;18.620;2023-06-14T05:45:03;16.20;99.90
36416;DHT22;22447;44.530;18.620;2023-06-14T05:47:29;16.30;99.90
36416;DHT22;22447;44.530;18.620;2023-06-14T05:49:55;16.30;99.90
36416;DHT22;22447;44.530;18.620;2023-06-14T05:52:21;16.40;99.90
36416;DHT22;22447;44.530;18.620;2023-06-14T05:54:47;16.40;99.90
36416;DHT22;22447;44.530;18.620;2023-06-14T05:57:13;16.50;99.90
36416;DHT22;22447;44.530;18.620;2023-06-14T05:59:39;16.50;99.90
36416;DHT22;22447;44.530;18.620;2023-06-14T06:02:05;16.60;99.90
36416;DHT22;22447;44.530;18.620;2023-06-14T06:04:31;16.60;99.90
36416;DHT22;22447;44.530;18.620;2023-06-14T06:06:57;16.70;99.90
36416;DHT22;22447;44.530;18.620;2023-06-14T06:09:26;16.80;99.90
36416;DHT22;22447;44.530;18.620;2023-06-14T06:11:55;16.90;99.90
36416;DHT22;22447;44.530;18.620;2023-06-14T06:14:21;17.00;99.90
36416;DHT22;22447;44.530;18.620;2023-06-14T06:16:47;17.10;99.90
36416;DHT22;22447;44.530;18.620;2023-06-14T06:19:13;17.20;99.90
36416;DHT22;22447;44.530;18.620;2023-06-14T06:21:39;17.30;99.90
36416;DHT22;22447;44.530;18.620;2023-06-14T06:24:05;17.30;99.90
36416;DHT22;22447;44.530;18.620;2023-06-14T06:26:32;17.20;99.90
36416;DHT22;22447;44.530;18.620;2023-06-14T06:28:58;17.20;99.90
36416;DHT22;22447;44.530;18.620;2023-06-14T06:31:24;17.30;99.90
36416;DHT22;22447;44.530;18.620;2023-06-14T06:33:51;17.30;99.90
36416;DHT22;22447;44.530;18.620;2023-06-14T06:36:17;17.40;99.90
36416;DHT22;22447;44.530;18.620;2023-06-14T06:38:43;17.50;99.90
36416;DHT22;22447;44.530;18.620;2023-06-14T06:41:09;17.70;99.90
36416;DHT22;22447;44.530;18.620;2023-06-14T06:43:35;17.80;99.90
36416;DHT22;22447;44.530;18.620;2023-06-14T06:46:01;17.90;99.90
36416;DHT22;22447;44.530;18.620;2023-06-14T06:48:28;18.00;99.90
36416;DHT22;22447;44.530;18.620;2023-06-14T06:50:57;18.10;99.90
36416;DHT22;22447;44.530;18.620;2023-06-14T06:53:23;18.30;99.90
36416;DHT22;22447;44.530;18.620;2023-06-14T06:55:49;18.30;99.90
36416;DHT22;22447;44.530;18.620;2023-06-14T06:58:15;18.30;99.90
36416;DHT22;22447;44.530;18.620;2023-06-14T07:00:41;18.30;99.90
36416;DHT22;22447;44.530;18.620;2023-06-14T07:03:07;18.30;99.90
36416;DHT22;22447;44.530;18.620;2023-06-14T07:05:33;18.40;99.90
36416;DHT22;22447;44.530;18.620;2023-06-14T07:08:00;18.50;99.90
36416;DHT22;22447;44.530;18.620;2023-06-14T07:10:26;18.50;99.90
36416;DHT22;22447;44.530;18.620;2023-06-14T07:12:52;18.50;99.90
36416;DHT22;22447;44.530;18.620;2023-06-14T07:15:17;18.50;99.90
36416;DHT22;22447;44.530;18.620;2023-06-14T07:17:43;18.50;99.90
36416;DHT22;22447;44.530;18.620;2023-06-14T07:20:10;18.50;99.90
36416;DHT22;22447;44.530;18.620;2023-06-14T07:22:40;18.50;99.90
36416;DHT22;22447;44.530;18.620;2023-06-14T07:25:08;18.40;99.90
36416;DHT22;22447;44.530;18.620;2023-06-14T07:27:34;18.50;99.90
36416;DHT22;22447;44.530;18.620;2023-06-14T07:30:03;18.40;99.90
36416;DHT22;22447;44.530;18.620;2023-06-14T07:32:32;18.40;99.90
36416;DHT22;22447;44.530;18.620;2023-06-14T07:35:02;18.40;99.90
36416;DHT22;22447;44.530;18.620;2023-06-14T07:37:28;18.50;99.90
36416;DHT22;22447;44.530;18.620;2023-06-14T07:39:54;18.40;99.90
36416;DHT22;22447;44.530;18.620;2023-06-14T07:42:20;18.40;99.90
36416;DHT22;22447;44.530;18.620;2023-06-14T07:44:46;18.40;99.90
36416;DHT22;22447;44.530;18.620;2023-06-14T07:47:15;18.40;99.90
36416;DHT22;22447;44.530;18.620;2023-06-14T07:49:41;18.50;99.90
36416;DHT22;22447;44.530;18.620;2023-06-14T07:52:07;18.50;99.90
36416;DHT22;22447;44.530;18.620;2023-06-14T07:54:33;18.60;99.90
36416;DHT22;22447;44.530;18.620;2023-06-14T07:56:59;18.70;99.90
36416;DHT22;22447;44.530;18.620;2023-06-14T07:59:26;18.70;99.90
36416;DHT22;22447;44.530;18.620;2023-06-14T08:01:52;18.70;99.90
36416;DHT22;22447;44.530;18.620;2023-06-14T08:04:18;18.80;99.90
36416;DHT22;22447;44.530;18.620;2023-06-14T08:06:50;18.80;99.90
36416;DHT22;22447;44.530;18.620;2023-06-14T08:09:16;18.90;99.90
36416;DHT22;22447;44.530;18.620;2023-06-14T08:11:42;19.00;99.90
36416;DHT22;22447;44.530;18.620;2023-06-14T08:14:08;18.80;99.90
36416;DHT22;22447;44.530;18.620;2023-06-14T08:16:37;18.80;99.90
36416;DHT22;22447;44.530;18.620;2023-06-14T08:19:03;18.90;99.90
36416;DHT22;22447;44.530;18.620;2023-06-14T08:21:29;19.00;99.90
36416;DHT22;22447;44.530;18.620;2023-06-14T08:23:57;19.10;99.90
36416;DHT22;22447;44.530;18.620;2023-06-14T08:26:33;19.20;99.90
36416;DHT22;22447;44.530;18.620;2023-06-14T08:29:00;19.20;99.90
36416;DHT22;22447;44.530;18.620;2023-06-14T08:31:26;19.30;99.90
36416;DHT22;22447;44.530;18.620;2023-06-14T08:33:53;19.30;99.90
36416;DHT22;22447;44.530;18.620;2023-06-14T08:36:26;19.40;99.90
36416;DHT22;22447;44.530;18.620;2023-06-14T08:38:52;19.40;99.90
36416;DHT22;22447;44.530;18.620;2023-06-14T08:41:21;19.50;99.90
36416;DHT22;22447;44.530;18.620;2023-06-14T08:43:51;19.50;99.90
36416;DHT22;22447;44.530;18.620;2023-06-14T08:46:18;19.50;99.90
36416;DHT22;22447;44.530;18.620;2023-06-14T08:48:49;19.50;99.90
36416;DHT22;22447;44.530;18.620;2023-06-14T08:51:20;19.60;99.90
36416;DHT22;22447;44.530;18.620;2023-06-14T08:53:53;19.70;99.90
36416;DHT22;22447;44.530;18.620;2023-06-14T08:56:26;19.70;99.90
36416;DHT22;22447;44.530;18.620;2023-06-14T08:58:53;19.60;99.90
36416;DHT22;22447;44.530;18.620;2023-06-14T09:01:20;19.60;99.90
36416;DHT22;22447;44.530;18.620;2023-06-14T09:03:49;19.70;99.90
36416;DHT22;22447;44.530;18.620;2023-06-14T09:06:17;19.80;99.90
36416;DHT22;22447;44.530;18.620;2023-06-14T09:08:49;19.90;99.90
36416;DHT22;22447;44.530;18.620;2023-06-14T09:11:17;19.90;99.90
36416;DHT22;22447;44.530;18.620;2023-06-14T09:13:45;19.90;99.90
36416;DHT22;22447;44.530;18.620;2023-06-14T09:16:14;19.90;99.90
36416;DHT22;22447;44.530;18.620;2023-06-14T09:18:46;20.00;99.90
36416;DHT22;22447;44.530;18.620;2023-06-14T09:21:17;20.10;99.90
36416;DHT22;22447;44.530;18.620;2023-06-14T09:23:45;20.20;99.90
36416;DHT22;22447;44.530;18.620;2023-06-14T09:28:42;20.20;99.90
36416;DHT22;22447;44.530;18.620;2023-06-14T09:31:14;20.20;99.90
36416;DHT22;22447;44.530;18.620;2023-06-14T09:33:45;20.20;99.90
36416;DHT22;22447;44.530;18.620;2023-06-14T09:36:21;20.20;99.90
36416;DHT22;22447;44.530;18.620;2023-06-14T09:38:57;20.40;99.90
36416;DHT22;22447;44.530;18.620;2023-06-14T09:41:34;20.50;99.90
36416;DHT22;22447;44.530;18.620;2023-06-14T09:44:02;20.70;99.90
36416;DHT22;22447;44.530;18.620;2023-06-14T09:46:28;20.80;99.90
36416;DHT22;22447;44.530;18.620;2023-06-14T09:48:58;20.80;99.90
36416;DHT22;22447;44.530;18.620;2023-06-14T09:51:25;20.70;99.90
36416;DHT22;22447;44.530;18.620;2023-06-14T09:53:52;20.80;99.90
36416;DHT22;22447;44.530;18.620;2023-06-14T09:56:28;20.70;99.90
36416;DHT22;22447;44.530;18.620;2023-06-14T09:58:58;20.90;99.90
36416;DHT22;22447;44.530;18.620;2023-06-14T10:01:26;21.00;99.90
36416;DHT22;22447;44.530;18.620;2023-06-14T10:04:05;21.10;99.90
36416;DHT22;22447;44.530;18.620;2023-06-14T10:06:40;21.20;99.90
36416;DHT22;22447;44.530;18.620;2023-06-14T10:09:09;21.30;99.90
36416;DHT22;22447;44.530;18.620;2023-06-14T10:11:36;21.40;99.90
36416;DHT22;22447;44.530;18.620;2023-06-14T10:14:06;21.50;99.90
36416;DHT22;22447;44.530;18.620;2023-06-14T10:19:25;21.50;99.90
36416;DHT22;22447;44.530;18.620;2023-06-14T10:24:40;21.70;99.90
36416;DHT22;22447;44.530;18.620;2023-06-14T10:27:08;21.80;99.90
36416;DHT22;22447;44.530;18.620;2023-06-14T10:32:18;22.00;99.90
36416;DHT22;22447;44.530;18.620;2023-06-14T10:34:44;21.90;99.90
36416;DHT22;22447;44.530;18.620;2023-06-14T10:37:12;22.10;99.90
36416;DHT22;22447;44.530;18.620;2023-06-14T10:39:44;22.20;99.90
36416;DHT22;22447;44.530;18.620;2023-06-14T10:42:14;22.30;99.90
36416;DHT22;22447;44.530;18.620;2023-06-14T10:44:50;22.40;99.90
36416;DHT22;22447;44.530;18.620;2023-06-14T10:47:31;22.40;99.90
36416;DHT22;22447;44.530;18.620;2023-06-14T10:50:06;22.40;99.90
36416;DHT22;22447;44.530;18.620;2023-06-14T10:52:39;22.50;99.90
36416;DHT22;22447;44.530;18.620;2023-06-14T10:57:49;22.80;99.90
36416;DHT22;22447;44.530;18.620;2023-06-14T11:00:25;22.70;99.90
36416;DHT22;22447;44.530;18.620;2023-06-14T11:05:56;23.00;99.90
36416;DHT22;22447;44.530;18.620;2023-06-14T11:11:17;23.30;99.90
36416;DHT22;22447;44.530;18.620;2023-06-14T11:13:51;23.40;99.90
36416;DHT22;22447;44.530;18.620;2023-06-14T11:16:18;23.70;99.90
36416;DHT22;22447;44.530;18.620;2023-06-14T11:18:50;24.00;99.90
36416;DHT22;22447;44.530;18.620;2023-06-14T11:21:17;24.40;99.90
36416;DHT22;22447;44.530;18.620;2023-06-14T11:23:52;24.60;99.50
36416;DHT22;22447;44.530;18.620;2023-06-14T11:26:30;24.80;99.50
36416;DHT22;22447;44.530;18.620;2023-06-14T11:28:58;25.00;97.70
36416;DHT22;22447;44.530;18.620;2023-06-14T11:31:25;24.90;94.60
36416;DHT22;22447;44.530;18.620;2023-06-14T11:33:57;24.90;96.40
36416;DHT22;22447;44.530;18.620;2023-06-14T11:36:30;25.00;95.30
36416;DHT22;22447;44.530;18.620;2023-06-14T11:39:03;24.90;99.90
36416;DHT22;22447;44.530;18.620;2023-06-14T11:41:34;24.80;97.20
36416;DHT22;22447;44.530;18.620;2023-06-14T11:44:01;24.90;96.40
36416;DHT22;22447;44.530;18.620;2023-06-14T11:46:28;24.80;93.70
36416;DHT22;22447;44.530;18.620;2023-06-14T11:48:54;24.80;95.20
36416;DHT22;22447;44.530;18.620;2023-06-14T11:51:20;25.00;95.90
36416;DHT22;22447;44.530;18.620;2023-06-14T11:53:46;25.20;93.10
36416;DHT22;22447;44.530;18.620;2023-06-14T11:56:13;25.60;95.30
36416;DHT22;22447;44.530;18.620;2023-06-14T11:58:41;25.70;96.90
36416;DHT22;22447;44.530;18.620;2023-06-14T12:01:08;25.90;96.20
36416;DHT22;22447;44.530;18.620;2023-06-14T12:03:34;25.90;90.30
36416;DHT22;22447;44.530;18.620;2023-06-14T12:06:08;26.10;91.90
36416;DHT22;22447;44.530;18.620;2023-06-14T12:08:38;26.00;90.40
36416;DHT22;22447;44.530;18.620;2023-06-14T12:11:12;26.30;91.80
36416;DHT22;22447;44.530;18.620;2023-06-14T12:13:42;26.30;91.40
36416;DHT22;22447;44.530;18.620;2023-06-14T12:16:10;26.10;93.80
36416;DHT22;22447;44.530;18.620;2023-06-14T12:18:38;25.60;92.20
36416;DHT22;22447;44.530;18.620;2023-06-14T12:21:05;25.20;94.50
36416;DHT22;22447;44.530;18.620;2023-06-14T12:23:49;25.50;98.40
36416;DHT22;22447;44.530;18.620;2023-06-14T12:26:26;26.20;96.30
36416;DHT22;22447;44.530;18.620;2023-06-14T12:28:53;25.10;98.10
36416;DHT22;22447;44.530;18.620;2023-06-14T12:31:21;24.90;93.40
36416;DHT22;22447;44.530;18.620;2023-06-14T12:33:51;25.20;99.90
36416;DHT22;22447;44.530;18.620;2023-06-14T12:36:21;24.80;95.20
36416;DHT22;22447;44.530;18.620;2023-06-14T12:38:51;25.60;94.30
36416;DHT22;22447;44.530;18.620;2023-06-14T12:41:22;25.80;94.70
36416;DHT22;22447;44.530;18.620;2023-06-14T12:43:50;26.40;94.80
36416;DHT22;22447;44.530;18.620;2023-06-14T12:46:16;26.70;96.10
36416;DHT22;22447;44.530;18.620;2023-06-14T12:48:42;27.10;99.90
36416;DHT22;22447;44.530;18.620;2023-06-14T12:51:10;27.20;95.80
36416;DHT22;22447;44.530;18.620;2023-06-14T12:53:39;27.60;95.00
36416;DHT22;22447;44.530;18.620;2023-06-14T12:56:05;27.90;97.50
36416;DHT22;22447;44.530;18.620;2023-06-14T12:58:31;27.40;94.20
36416;DHT22;22447;44.530;18.620;2023-06-14T13:00:57;27.60;91.90
36416;DHT22;22447;44.530;18.620;2023-06-14T13:03:23;27.80;96.20
36416;DHT22;22447;44.530;18.620;2023-06-14T13:05:49;27.80;99.90
36416;DHT22;22447;44.530;18.620;2023-06-14T13:08:15;26.40;98.70
36416;DHT22;22447;44.530;18.620;2023-06-14T13:10:41;26.30;95.80
36416;DHT22;22447;44.530;18.620;2023-06-14T13:13:07;27.00;93.70
36416;DHT22;22447;44.530;18.620;2023-06-14T13:15:36;26.50;92.60
36416;DHT22;22447;44.530;18.620;2023-06-14T13:18:02;26.20;96.70
36416;DHT22;22447;44.530;18.620;2023-06-14T13:20:29;26.40;99.90
36416;DHT22;22447;44.530;18.620;2023-06-14T13:22:54;26.90;94.60
36416;DHT22;22447;44.530;18.620;2023-06-14T13:25:20;27.40;93.10
36416;DHT22;22447;44.530;18.620;2023-06-14T13:27:48;27.50;91.50
36416;DHT22;22447;44.530;18.620;2023-06-14T13:30:14;27.20;92.70
36416;DHT22;22447;44.530;18.620;2023-06-14T13:32:40;26.90;92.90
36416;DHT22;22447;44.530;18.620;2023-06-14T13:35:06;26.90;91.40
36416;DHT22;22447;44.530;18.620;2023-06-14T13:37:32;26.90;95.80
36416;DHT22;22447;44.530;18.620;2023-06-14T13:39:58;27.00;96.60
36416;DHT22;22447;44.530;18.620;2023-06-14T13:42:24;26.50;94.60
36416;DHT22;22447;44.530;18.620;2023-06-14T13:44:50;26.60;94.10
36416;DHT22;22447;44.530;18.620;2023-06-14T13:47:18;26.50;92.90
36416;DHT22;22447;44.530;18.620;2023-06-14T13:49:44;26.60;88.60
36416;DHT22;22447;44.530;18.620;2023-06-14T13:52:10;26.40;94.50
36416;DHT22;22447;44.530;18.620;2023-06-14T13:54:37;26.50;98.10
36416;DHT22;22447;44.530;18.620;2023-06-14T13:57:03;26.50;94.20
36416;DHT22;22447;44.530;18.620;2023-06-14T13:59:29;26.40;95.00
36416;DHT22;22447;44.530;18.620;2023-06-14T14:01:55;26.20;94.60
36416;DHT22;22447;44.530;18.620;2023-06-14T14:04:20;25.80;96.80
36416;DHT22;22447;44.530;18.620;2023-06-14T14:06:47;25.70;91.50
36416;DHT22;22447;44.530;18.620;2023-06-14T14:09:12;25.70;93.40
36416;DHT22;22447;44.530;18.620;2023-06-14T14:11:38;25.70;93.10
36416;DHT22;22447;44.530;18.620;2023-06-14T14:14:05;25.50;94.20
36416;DHT22;22447;44.530;18.620;2023-06-14T14:16:31;25.60;95.90
36416;DHT22;22447;44.530;18.620;2023-06-14T14:18:57;25.70;94.20
36416;DHT22;22447;44.530;18.620;2023-06-14T14:21:23;25.70;98.40
36416;DHT22;22447;44.530;18.620;2023-06-14T14:23:49;25.50;99.60
36416;DHT22;22447;44.530;18.620;2023-06-14T14:26:15;25.30;95.60
36416;DHT22;22447;44.530;18.620;2023-06-14T14:28:41;25.20;92.40
36416;DHT22;22447;44.530;18.620;2023-06-14T14:31:07;25.20;93.90
36416;DHT22;22447;44.530;18.620;2023-06-14T14:33:33;25.00;95.50
36416;DHT22;22447;44.530;18.620;2023-06-14T14:36:00;24.80;95.10
36416;DHT22;22447;44.530;18.620;2023-06-14T14:38:29;24.80;92.60
36416;DHT22;22447;44.530;18.620;2023-06-14T14:40:55;24.70;91.20
36416;DHT22;22447;44.530;18.620;2023-06-14T14:43:21;24.60;95.90
36416;DHT22;22447;44.530;18.620;2023-06-14T14:45:47;24.40;95.70
36416;DHT22;22447;44.530;18.620;2023-06-14T14:48:13;24.20;97.10
36416;DHT22;22447;44.530;18.620;2023-06-14T14:50:39;24.10;97.80
36416;DHT22;22447;44.530;18.620;2023-06-14T14:53:05;24.10;98.30
36416;DHT22;22447;44.530;18.620;2023-06-14T14:55:32;24.00;95.60
36416;DHT22;22447;44.530;18.620;2023-06-14T14:58:00;23.90;99.80
36416;DHT22;22447;44.530;18.620;2023-06-14T15:00:26;24.00;97.00
36416;DHT22;22447;44.530;18.620;2023-06-14T15:02:52;23.90;99.90
36416;DHT22;22447;44.530;18.620;2023-06-14T15:05:18;23.80;99.50
36416;DHT22;22447;44.530;18.620;2023-06-14T15:07:44;23.90;98.90
36416;DHT22;22447;44.530;18.620;2023-06-14T15:10:11;23.80;99.90
36416;DHT22;22447;44.530;18.620;2023-06-14T15:12:37;23.70;99.90
36416;DHT22;22447;44.530;18.620;2023-06-14T15:15:04;23.70;98.40
36416;DHT22;22447;44.530;18.620;2023-06-14T15:17:30;23.70;98.70
36416;DHT22;22447;44.530;18.620;2023-06-14T15:19:56;23.60;94.80
36416;DHT22;22447;44.530;18.620;2023-06-14T15:22:22;23.20;97.50
36416;DHT22;22447;44.530;18.620;2023-06-14T15:24:48;23.20;97.30
36416;DHT22;22447;44.530;18.620;2023-06-14T15:27:14;23.20;97.80
36416;DHT22;22447;44.530;18.620;2023-06-14T15:29:43;23.20;99.80
36416;DHT22;22447;44.530;18.620;2023-06-14T15:32:09;23.00;99.90
36416;DHT22;22447;44.530;18.620;2023-06-14T15:34:36;22.90;98.30
36416;DHT22;22447;44.530;18.620;2023-06-14T15:37:06;22.60;98.30
36416;DHT22;22447;44.530;18.620;2023-06-14T15:39:32;22.70;99.50
36416;DHT22;22447;44.530;18.620;2023-06-14T15:41:58;22.60;99.60
36416;DHT22;22447;44.530;18.620;2023-06-14T15:44:25;22.40;98.60